sensor_id;sensor_type;location;lat;lon;timestamp;P1;durP1;ratioP1;P2;durP2;ratioP2
71490;SDS011;59307;50.060;9.150;2023-07-24T00:00:22;6.43;;;2.90;;
71490;SDS011;59307;50.060;9.150;2023-07-24T00:02:47;5.83;;;2.53;;
71490;SDS011;59307;50.060;9.150;2023-07-24T00:05:12;6.50;;;2.50;;
71490;SDS011;59307;50.060;9.150;2023-07-24T00:07:37;7.20;;;2.57;;
71490;SDS011;59307;50.060;9.150;2023-07-24T00:10:03;4.87;;;2.47;;
71490;SDS011;59307;50.060;9.150;2023-07-24T00:12:28;5.67;;;2.40;;
71490;SDS011;59307;50.060;9.150;2023-07-24T00:14:54;5.47;;;2.60;;
71490;SDS011;59307;50.060;9.150;2023-07-24T00:17:19;5.23;;;2.57;;
71490;SDS011;59307;50.060;9.150;2023-07-24T00:19:44;6.80;;;2.90;;
71490;SDS011;59307;50.060;9.150;2023-07-24T00:22:09;5.67;;;2.90;;
71490;SDS011;59307;50.060;9.150;2023-07-24T00:24:34;6.93;;;2.70;;
71490;SDS011;59307;50.060;9.150;2023-07-24T00:26:59;4.33;;;2.43;;
71490;SDS011;59307;50.060;9.150;2023-07-24T00:29:25;5.17;;;2.40;;
71490;SDS011;59307;50.060;9.150;2023-07-24T00:31:50;5.63;;;2.63;;
71490;SDS011;59307;50.060;9.150;2023-07-24T00:34:15;5.07;;;2.50;;
71490;SDS011;59307;50.060;9.150;2023-07-24T00:36:40;4.10;;;2.40;;
71490;SDS011;59307;50.060;9.150;2023-07-24T00:39:06;7.03;;;3.00;;
71490;SDS011;59307;50.060;9.150;2023-07-24T00:41:31;6.03;;;2.90;;
71490;SDS011;59307;50.060;9.150;2023-07-24T00:43:56;5.13;;;2.40;;
71490;SDS011;59307;50.060;9.150;2023-07-24T00:46:21;6.73;;;2.93;;
71490;SDS011;59307;50.060;9.150;2023-07-24T00:48:46;4.87;;;2.43;;
71490;SDS011;59307;50.060;9.150;2023-07-24T00:51:12;6.97;;;2.90;;
71490;SDS011;59307;50.060;9.150;2023-07-24T00:53:37;5.63;;;2.83;;
71490;SDS011;59307;50.060;9.150;2023-07-24T00:56:02;15.67;;;3.83;;
71490;SDS011;59307;50.060;9.150;2023-07-24T00:58:27;4.82;;;2.53;;
71490;SDS011;59307;50.060;9.150;2023-07-24T01:00:53;4.60;;;2.50;;
71490;SDS011;59307;50.060;9.150;2023-07-24T01:03:18;5.80;;;2.70;;
71490;SDS011;59307;50.060;9.150;2023-07-24T01:05:43;5.47;;;2.70;;
71490;SDS011;59307;50.060;9.150;2023-07-24T01:08:08;5.37;;;2.43;;
71490;SDS011;59307;50.060;9.150;2023-07-24T01:10:33;6.40;;;2.83;;
71490;SDS011;59307;50.060;9.150;2023-07-24T01:15:56;6.23;;;3.10;;
71490;SDS011;59307;50.060;9.150;2023-07-24T01:18:24;4.90;;;2.40;;
71490;SDS011;59307;50.060;9.150;2023-07-24T01:20:53;6.10;;;3.00;;
71490;SDS011;59307;50.060;9.150;2023-07-24T01:26:04;4.30;;;2.77;;
71490;SDS011;59307;50.060;9.150;2023-07-24T01:28:30;5.03;;;2.80;;
71490;SDS011;59307;50.060;9.150;2023-07-24T01:30:55;5.97;;;3.00;;
71490;SDS011;59307;50.060;9.150;2023-07-24T01:33:20;5.90;;;2.73;;
71490;SDS011;59307;50.060;9.150;2023-07-24T01:35:47;6.43;;;2.75;;
71490;SDS011;59307;50.060;9.150;2023-07-24T01:38:15;7.68;;;2.85;;
71490;SDS011;59307;50.060;9.150;2023-07-24T01:40:41;6.20;;;2.50;;
71490;SDS011;59307;50.060;9.150;2023-07-24T01:43:07;5.60;;;2.58;;
71490;SDS011;59307;50.060;9.150;2023-07-24T01:45:32;4.97;;;2.70;;
71490;SDS011;59307;50.060;9.150;2023-07-24T01:47:57;6.20;;;2.90;;
71490;SDS011;59307;50.060;9.150;2023-07-24T01:50:23;5.73;;;2.43;;
71490;SDS011;59307;50.060;9.150;2023-07-24T01:52:48;5.43;;;2.60;;
71490;SDS011;59307;50.060;9.150;2023-07-24T01:55:13;5.73;;;2.50;;
71490;SDS011;59307;50.060;9.150;2023-07-24T01:57:38;5.03;;;2.70;;
71490;SDS011;59307;50.060;9.150;2023-07-24T02:00:04;7.20;;;2.83;;
71490;SDS011;59307;50.060;9.150;2023-07-24T02:02:29;7.03;;;3.17;;
71490;SDS011;59307;50.060;9.150;2023-07-24T02:04:54;7.43;;;3.20;;
71490;SDS011;59307;50.060;9.150;2023-07-24T02:07:19;6.67;;;3.13;;
71490;SDS011;59307;50.060;9.150;2023-07-24T02:09:44;7.37;;;2.80;;
71490;SDS011;59307;50.060;9.150;2023-07-24T02:12:10;5.87;;;2.67;;
71490;SDS011;59307;50.060;9.150;2023-07-24T02:14:35;5.63;;;2.83;;
71490;SDS011;59307;50.060;9.150;2023-07-24T02:17:00;5.50;;;2.80;;
71490;SDS011;59307;50.060;9.150;2023-07-24T02:19:25;5.50;;;2.70;;
71490;SDS011;59307;50.060;9.150;2023-07-24T02:21:50;6.87;;;2.97;;
71490;SDS011;59307;50.060;9.150;2023-07-24T02:24:16;5.63;;;2.77;;
71490;SDS011;59307;50.060;9.150;2023-07-24T02:26:41;6.37;;;2.87;;
71490;SDS011;59307;50.060;9.150;2023-07-24T02:29:06;7.87;;;3.10;;
71490;SDS011;59307;50.060;9.150;2023-07-24T02:31:31;6.97;;;3.77;;
71490;SDS011;59307;50.060;9.150;2023-07-24T02:33:56;5.80;;;2.90;;
71490;SDS011;59307;50.060;9.150;2023-07-24T02:36:22;6.27;;;2.80;;
71490;SDS011;59307;50.060;9.150;2023-07-24T02:38:47;6.80;;;3.20;;
71490;SDS011;59307;50.060;9.150;2023-07-24T02:41:12;6.20;;;2.90;;
71490;SDS011;59307;50.060;9.150;2023-07-24T02:43:37;8.43;;;2.83;;
71490;SDS011;59307;50.060;9.150;2023-07-24T02:46:02;6.07;;;2.80;;
71490;SDS011;59307;50.060;9.150;2023-07-24T02:48:28;5.40;;;2.77;;
71490;SDS011;59307;50.060;9.150;2023-07-24T02:50:53;4.75;;;2.67;;
71490;SDS011;59307;50.060;9.150;2023-07-24T02:53:18;4.47;;;2.50;;
71490;SDS011;59307;50.060;9.150;2023-07-24T02:55:43;6.47;;;2.60;;
71490;SDS011;59307;50.060;9.150;2023-07-24T02:58:09;5.30;;;2.60;;
71490;SDS011;59307;50.060;9.150;2023-07-24T03:00:34;5.47;;;2.77;;
71490;SDS011;59307;50.060;9.150;2023-07-24T03:02:59;7.20;;;2.90;;
71490;SDS011;59307;50.060;9.150;2023-07-24T03:05:24;6.23;;;2.83;;
71490;SDS011;59307;50.060;9.150;2023-07-24T03:07:49;5.73;;;2.97;;
71490;SDS011;59307;50.060;9.150;2023-07-24T03:10:14;6.50;;;2.97;;
71490;SDS011;59307;50.060;9.150;2023-07-24T03:12:40;7.60;;;2.90;;
71490;SDS011;59307;50.060;9.150;2023-07-24T03:15:05;6.60;;;2.93;;
71490;SDS011;59307;50.060;9.150;2023-07-24T03:17:30;5.27;;;2.60;;
71490;SDS011;59307;50.060;9.150;2023-07-24T03:19:56;5.67;;;2.50;;
71490;SDS011;59307;50.060;9.150;2023-07-24T03:22:21;6.40;;;2.70;;
71490;SDS011;59307;50.060;9.150;2023-07-24T03:24:46;5.97;;;3.17;;
71490;SDS011;59307;50.060;9.150;2023-07-24T03:27:11;9.13;;;3.40;;
71490;SDS011;59307;50.060;9.150;2023-07-24T03:29:37;5.93;;;2.90;;
71490;SDS011;59307;50.060;9.150;2023-07-24T03:32:02;6.73;;;2.83;;
71490;SDS011;59307;50.060;9.150;2023-07-24T03:34:27;7.07;;;2.83;;
71490;SDS011;59307;50.060;9.150;2023-07-24T03:36:52;9.17;;;2.87;;
71490;SDS011;59307;50.060;9.150;2023-07-24T03:39:17;6.07;;;2.90;;
71490;SDS011;59307;50.060;9.150;2023-07-24T03:41:43;5.63;;;2.83;;
71490;SDS011;59307;50.060;9.150;2023-07-24T03:44:08;6.30;;;3.13;;
71490;SDS011;59307;50.060;9.150;2023-07-24T03:46:33;6.23;;;3.00;;
71490;SDS011;59307;50.060;9.150;2023-07-24T03:48:58;5.70;;;2.80;;
71490;SDS011;59307;50.060;9.150;2023-07-24T03:51:24;8.93;;;2.70;;
71490;SDS011;59307;50.060;9.150;2023-07-24T03:53:49;5.67;;;2.97;;
71490;SDS011;59307;50.060;9.150;2023-07-24T03:56:14;7.03;;;2.83;;
71490;SDS011;59307;50.060;9.150;2023-07-24T03:58:39;8.40;;;2.90;;
71490;SDS011;59307;50.060;9.150;2023-07-24T04:01:05;5.80;;;3.13;;
71490;SDS011;59307;50.060;9.150;2023-07-24T04:03:30;5.03;;;2.80;;
71490;SDS011;59307;50.060;9.150;2023-07-24T04:05:55;8.70;;;3.40;;
71490;SDS011;59307;50.060;9.150;2023-07-24T04:08:20;7.43;;;2.80;;
71490;SDS011;59307;50.060;9.150;2023-07-24T04:10:45;6.67;;;3.03;;
71490;SDS011;59307;50.060;9.150;2023-07-24T04:13:10;7.77;;;3.70;;
71490;SDS011;59307;50.060;9.150;2023-07-24T04:15:36;9.50;;;3.50;;
71490;SDS011;59307;50.060;9.150;2023-07-24T04:18:01;5.93;;;3.00;;
71490;SDS011;59307;50.060;9.150;2023-07-24T04:20:27;5.93;;;3.00;;
71490;SDS011;59307;50.060;9.150;2023-07-24T04:22:52;4.90;;;2.70;;
71490;SDS011;59307;50.060;9.150;2023-07-24T04:25:17;5.90;;;3.13;;
71490;SDS011;59307;50.060;9.150;2023-07-24T04:27:42;6.87;;;3.33;;
71490;SDS011;59307;50.060;9.150;2023-07-24T04:30:08;8.67;;;3.50;;
71490;SDS011;59307;50.060;9.150;2023-07-24T04:32:33;7.73;;;3.40;;
71490;SDS011;59307;50.060;9.150;2023-07-24T04:34:58;6.93;;;3.67;;
71490;SDS011;59307;50.060;9.150;2023-07-24T04:37:23;8.20;;;3.27;;
71490;SDS011;59307;50.060;9.150;2023-07-24T04:39:48;8.25;;;3.58;;
71490;SDS011;59307;50.060;9.150;2023-07-24T04:42:14;7.70;;;3.33;;
71490;SDS011;59307;50.060;9.150;2023-07-24T04:44:39;6.83;;;3.30;;
71490;SDS011;59307;50.060;9.150;2023-07-24T04:47:04;7.37;;;3.33;;
71490;SDS011;59307;50.060;9.150;2023-07-24T04:49:29;14.33;;;3.50;;
71490;SDS011;59307;50.060;9.150;2023-07-24T04:51:55;5.90;;;3.13;;
71490;SDS011;59307;50.060;9.150;2023-07-24T04:54:20;9.43;;;3.07;;
71490;SDS011;59307;50.060;9.150;2023-07-24T04:56:45;6.90;;;3.10;;
71490;SDS011;59307;50.060;9.150;2023-07-24T04:59:11;6.57;;;3.03;;
71490;SDS011;59307;50.060;9.150;2023-07-24T05:01:36;5.93;;;3.00;;
71490;SDS011;59307;50.060;9.150;2023-07-24T05:04:01;9.03;;;3.70;;
71490;SDS011;59307;50.060;9.150;2023-07-24T05:06:26;6.57;;;3.10;;
71490;SDS011;59307;50.060;9.150;2023-07-24T05:08:52;7.10;;;3.03;;
71490;SDS011;59307;50.060;9.150;2023-07-24T05:11:18;6.60;;;2.93;;
71490;SDS011;59307;50.060;9.150;2023-07-24T05:13:43;6.60;;;3.37;;
71490;SDS011;59307;50.060;9.150;2023-07-24T05:16:08;9.53;;;3.50;;
71490;SDS011;59307;50.060;9.150;2023-07-24T05:18:33;6.97;;;3.33;;
71490;SDS011;59307;50.060;9.150;2023-07-24T05:20:58;7.07;;;3.60;;
71490;SDS011;59307;50.060;9.150;2023-07-24T05:23:23;7.47;;;2.93;;
71490;SDS011;59307;50.060;9.150;2023-07-24T05:25:55;6.83;;;3.63;;
71490;SDS011;59307;50.060;9.150;2023-07-24T05:28:21;7.13;;;3.47;;
71490;SDS011;59307;50.060;9.150;2023-07-24T05:30:46;7.70;;;3.33;;
71490;SDS011;59307;50.060;9.150;2023-07-24T05:33:11;7.20;;;3.60;;
71490;SDS011;59307;50.060;9.150;2023-07-24T05:35:36;6.30;;;2.90;;
71490;SDS011;59307;50.060;9.150;2023-07-24T05:38:02;7.90;;;3.50;;
71490;SDS011;59307;50.060;9.150;2023-07-24T05:40:27;6.83;;;3.33;;
71490;SDS011;59307;50.060;9.150;2023-07-24T05:42:53;8.43;;;3.40;;
71490;SDS011;59307;50.060;9.150;2023-07-24T05:45:18;6.80;;;3.30;;
71490;SDS011;59307;50.060;9.150;2023-07-24T05:47:43;7.33;;;3.20;;
71490;SDS011;59307;50.060;9.150;2023-07-24T05:50:08;6.27;;;3.33;;
71490;SDS011;59307;50.060;9.150;2023-07-24T05:52:34;7.87;;;3.67;;
71490;SDS011;59307;50.060;9.150;2023-07-24T05:54:59;7.80;;;3.83;;
71490;SDS011;59307;50.060;9.150;2023-07-24T05:57:24;13.17;;;3.20;;
71490;SDS011;59307;50.060;9.150;2023-07-24T05:59:49;6.97;;;3.20;;
71490;SDS011;59307;50.060;9.150;2023-07-24T06:02:16;8.73;;;3.95;;
71490;SDS011;59307;50.060;9.150;2023-07-24T06:04:42;9.50;;;3.20;;
71490;SDS011;59307;50.060;9.150;2023-07-24T06:07:07;8.23;;;3.50;;
71490;SDS011;59307;50.060;9.150;2023-07-24T06:09:32;11.57;;;3.47;;
71490;SDS011;59307;50.060;9.150;2023-07-24T06:11:57;7.30;;;3.50;;
71490;SDS011;59307;50.060;9.150;2023-07-24T06:14:22;9.67;;;3.60;;
71490;SDS011;59307;50.060;9.150;2023-07-24T06:16:47;7.30;;;3.77;;
71490;SDS011;59307;50.060;9.150;2023-07-24T06:19:13;9.03;;;3.90;;
71490;SDS011;59307;50.060;9.150;2023-07-24T06:21:38;10.07;;;3.63;;
71490;SDS011;59307;50.060;9.150;2023-07-24T06:24:03;9.87;;;3.80;;
71490;SDS011;59307;50.060;9.150;2023-07-24T06:26:28;8.10;;;3.80;;
71490;SDS011;59307;50.060;9.150;2023-07-24T06:28:54;11.37;;;3.73;;
71490;SDS011;59307;50.060;9.150;2023-07-24T06:31:19;6.40;;;3.30;;
71490;SDS011;59307;50.060;9.150;2023-07-24T06:33:44;6.30;;;3.30;;
71490;SDS011;59307;50.060;9.150;2023-07-24T06:36:10;7.57;;;3.57;;
71490;SDS011;59307;50.060;9.150;2023-07-24T06:38:35;8.43;;;4.00;;
71490;SDS011;59307;50.060;9.150;2023-07-24T06:41:00;7.00;;;3.60;;
71490;SDS011;59307;50.060;9.150;2023-07-24T06:43:25;7.33;;;3.90;;
71490;SDS011;59307;50.060;9.150;2023-07-24T06:45:51;8.93;;;4.50;;
71490;SDS011;59307;50.060;9.150;2023-07-24T06:48:16;9.10;;;4.50;;
71490;SDS011;59307;50.060;9.150;2023-07-24T06:50:41;8.30;;;4.15;;
71490;SDS011;59307;50.060;9.150;2023-07-24T06:53:06;8.73;;;4.03;;
71490;SDS011;59307;50.060;9.150;2023-07-24T06:55:31;7.67;;;3.80;;
71490;SDS011;59307;50.060;9.150;2023-07-24T06:57:57;9.10;;;3.90;;
71490;SDS011;59307;50.060;9.150;2023-07-24T07:00:22;11.77;;;4.10;;
71490;SDS011;59307;50.060;9.150;2023-07-24T07:02:47;9.67;;;4.40;;
71490;SDS011;59307;50.060;9.150;2023-07-24T07:05:12;9.73;;;4.40;;
71490;SDS011;59307;50.060;9.150;2023-07-24T07:07:37;8.43;;;4.10;;
71490;SDS011;59307;50.060;9.150;2023-07-24T07:10:04;8.77;;;4.10;;
71490;SDS011;59307;50.060;9.150;2023-07-24T07:12:30;7.28;;;4.00;;
71490;SDS011;59307;50.060;9.150;2023-07-24T07:14:55;9.10;;;5.00;;
71490;SDS011;59307;50.060;9.150;2023-07-24T07:17:20;8.13;;;4.70;;
71490;SDS011;59307;50.060;9.150;2023-07-24T07:19:45;9.07;;;4.50;;
71490;SDS011;59307;50.060;9.150;2023-07-24T07:22:11;8.60;;;4.20;;
71490;SDS011;59307;50.060;9.150;2023-07-24T07:24:36;10.23;;;4.83;;
71490;SDS011;59307;50.060;9.150;2023-07-24T07:27:01;10.63;;;4.57;;
71490;SDS011;59307;50.060;9.150;2023-07-24T07:29:26;8.33;;;4.23;;
71490;SDS011;59307;50.060;9.150;2023-07-24T07:31:51;9.67;;;4.50;;
71490;SDS011;59307;50.060;9.150;2023-07-24T07:34:16;9.33;;;4.57;;
71490;SDS011;59307;50.060;9.150;2023-07-24T07:36:42;8.85;;;4.50;;
71490;SDS011;59307;50.060;9.150;2023-07-24T07:39:07;8.33;;;3.73;;
71490;SDS011;59307;50.060;9.150;2023-07-24T07:41:32;7.93;;;3.90;;
71490;SDS011;59307;50.060;9.150;2023-07-24T07:43:58;8.20;;;3.90;;
71490;SDS011;59307;50.060;9.150;2023-07-24T07:46:23;7.60;;;3.73;;
71490;SDS011;59307;50.060;9.150;2023-07-24T07:48:48;8.30;;;4.20;;
71490;SDS011;59307;50.060;9.150;2023-07-24T07:51:14;7.70;;;3.77;;
71490;SDS011;59307;50.060;9.150;2023-07-24T07:53:39;7.30;;;3.67;;
71490;SDS011;59307;50.060;9.150;2023-07-24T07:56:05;7.47;;;4.05;;
71490;SDS011;59307;50.060;9.150;2023-07-24T07:58:30;9.17;;;3.53;;
71490;SDS011;59307;50.060;9.150;2023-07-24T08:00:55;7.60;;;3.50;;
71490;SDS011;59307;50.060;9.150;2023-07-24T08:03:20;9.03;;;3.80;;
71490;SDS011;59307;50.060;9.150;2023-07-24T08:05:46;9.37;;;4.43;;
71490;SDS011;59307;50.060;9.150;2023-07-24T08:08:11;8.10;;;3.97;;
71490;SDS011;59307;50.060;9.150;2023-07-24T08:10:37;10.20;;;4.27;;
71490;SDS011;59307;50.060;9.150;2023-07-24T08:13:02;8.90;;;4.05;;
71490;SDS011;59307;50.060;9.150;2023-07-24T08:15:27;8.90;;;4.30;;
71490;SDS011;59307;50.060;9.150;2023-07-24T08:17:52;8.03;;;4.10;;
71490;SDS011;59307;50.060;9.150;2023-07-24T08:20:18;11.27;;;4.40;;
71490;SDS011;59307;50.060;9.150;2023-07-24T08:22:43;8.50;;;4.20;;
71490;SDS011;59307;50.060;9.150;2023-07-24T08:25:08;10.50;;;4.53;;
71490;SDS011;59307;50.060;9.150;2023-07-24T08:27:33;10.40;;;4.30;;
71490;SDS011;59307;50.060;9.150;2023-07-24T08:29:58;7.70;;;4.37;;
71490;SDS011;59307;50.060;9.150;2023-07-24T08:32:23;10.97;;;4.70;;
71490;SDS011;59307;50.060;9.150;2023-07-24T08:34:49;8.87;;;4.57;;
71490;SDS011;59307;50.060;9.150;2023-07-24T08:37:14;9.43;;;4.60;;
71490;SDS011;59307;50.060;9.150;2023-07-24T08:39:39;7.77;;;4.30;;
71490;SDS011;59307;50.060;9.150;2023-07-24T08:42:11;9.10;;;4.70;;
71490;SDS011;59307;50.060;9.150;2023-07-24T08:44:36;9.25;;;4.63;;
71490;SDS011;59307;50.060;9.150;2023-07-24T08:47:01;8.20;;;4.50;;
71490;SDS011;59307;50.060;9.150;2023-07-24T08:49:28;9.90;;;4.50;;
71490;SDS011;59307;50.060;9.150;2023-07-24T08:51:54;7.78;;;4.32;;
71490;SDS011;59307;50.060;9.150;2023-07-24T08:54:20;11.37;;;5.17;;
71490;SDS011;59307;50.060;9.150;2023-07-24T08:56:45;9.73;;;4.50;;
71490;SDS011;59307;50.060;9.150;2023-07-24T08:59:14;8.67;;;4.73;;
71490;SDS011;59307;50.060;9.150;2023-07-24T09:01:39;10.30;;;5.17;;
71490;SDS011;59307;50.060;9.150;2023-07-24T09:04:04;8.70;;;4.43;;
71490;SDS011;59307;50.060;9.150;2023-07-24T09:06:30;10.17;;;4.37;;
71490;SDS011;59307;50.060;9.150;2023-07-24T09:08:55;10.00;;;4.63;;
71490;SDS011;59307;50.060;9.150;2023-07-24T09:11:20;8.40;;;4.70;;
71490;SDS011;59307;50.060;9.150;2023-07-24T09:13:45;11.23;;;4.73;;
71490;SDS011;59307;50.060;9.150;2023-07-24T09:16:21;11.27;;;4.77;;
71490;SDS011;59307;50.060;9.150;2023-07-24T09:18:47;7.72;;;4.30;;
71490;SDS011;59307;50.060;9.150;2023-07-24T09:21:12;8.80;;;4.40;;
71490;SDS011;59307;50.060;9.150;2023-07-24T09:23:37;11.47;;;4.53;;
71490;SDS011;59307;50.060;9.150;2023-07-24T09:26:06;11.20;;;4.90;;
71490;SDS011;59307;50.060;9.150;2023-07-24T09:28:32;8.95;;;4.70;;
71490;SDS011;59307;50.060;9.150;2023-07-24T09:30:58;11.77;;;5.07;;
71490;SDS011;59307;50.060;9.150;2023-07-24T09:36:00;8.57;;;4.18;;
71490;SDS011;59307;50.060;9.150;2023-07-24T09:38:25;10.73;;;5.23;;
71490;SDS011;59307;50.060;9.150;2023-07-24T09:40:52;8.40;;;4.80;;
71490;SDS011;59307;50.060;9.150;2023-07-24T09:43:21;11.73;;;5.07;;
71490;SDS011;59307;50.060;9.150;2023-07-24T09:45:47;12.73;;;4.85;;
71490;SDS011;59307;50.060;9.150;2023-07-24T09:48:13;9.93;;;4.50;;
71490;SDS011;59307;50.060;9.150;2023-07-24T09:50:39;10.68;;;4.63;;
71490;SDS011;59307;50.060;9.150;2023-07-24T09:53:05;14.77;;;4.60;;
71490;SDS011;59307;50.060;9.150;2023-07-24T09:55:32;11.83;;;4.33;;
71490;SDS011;59307;50.060;9.150;2023-07-24T09:58:00;8.90;;;4.32;;
71490;SDS011;59307;50.060;9.150;2023-07-24T10:00:25;8.97;;;4.30;;
71490;SDS011;59307;50.060;9.150;2023-07-24T10:02:50;8.83;;;4.70;;
71490;SDS011;59307;50.060;9.150;2023-07-24T10:05:16;11.80;;;4.47;;
71490;SDS011;59307;50.060;9.150;2023-07-24T10:07:42;9.10;;;4.68;;
71490;SDS011;59307;50.060;9.150;2023-07-24T10:10:07;9.40;;;4.80;;
71490;SDS011;59307;50.060;9.150;2023-07-24T10:12:33;10.27;;;4.70;;
71490;SDS011;59307;50.060;9.150;2023-07-24T10:14:59;9.02;;;4.53;;
71490;SDS011;59307;50.060;9.150;2023-07-24T10:17:34;9.17;;;4.60;;
71490;SDS011;59307;50.060;9.150;2023-07-24T10:20:06;9.88;;;4.85;;
71490;SDS011;59307;50.060;9.150;2023-07-24T10:22:32;12.18;;;4.78;;
71490;SDS011;59307;50.060;9.150;2023-07-24T10:24:57;9.37;;;4.70;;
71490;SDS011;59307;50.060;9.150;2023-07-24T10:27:23;10.37;;;5.00;;
71490;SDS011;59307;50.060;9.150;2023-07-24T10:29:57;9.57;;;4.70;;
71490;SDS011;59307;50.060;9.150;2023-07-24T10:32:23;8.20;;;4.50;;
71490;SDS011;59307;50.060;9.150;2023-07-24T10:35:06;9.50;;;4.67;;
71490;SDS011;59307;50.060;9.150;2023-07-24T10:37:33;10.90;;;4.63;;
71490;SDS011;59307;50.060;9.150;2023-07-24T10:39:59;8.68;;;4.65;;
71490;SDS011;59307;50.060;9.150;2023-07-24T10:42:24;9.97;;;5.30;;
71490;SDS011;59307;50.060;9.150;2023-07-24T10:44:50;10.50;;;4.70;;
71490;SDS011;59307;50.060;9.150;2023-07-24T10:47:15;10.70;;;4.80;;
71490;SDS011;59307;50.060;9.150;2023-07-24T10:49:42;8.63;;;4.50;;
71490;SDS011;59307;50.060;9.150;2023-07-24T10:52:13;9.23;;;4.88;;
71490;SDS011;59307;50.060;9.150;2023-07-24T10:54:38;11.83;;;4.97;;
71490;SDS011;59307;50.060;9.150;2023-07-24T10:57:03;9.50;;;4.73;;
71490;SDS011;59307;50.060;9.150;2023-07-24T10:59:35;10.20;;;4.70;;
71490;SDS011;59307;50.060;9.150;2023-07-24T11:02:00;8.30;;;4.30;;
71490;SDS011;59307;50.060;9.150;2023-07-24T11:04:28;7.45;;;3.85;;
71490;SDS011;59307;50.060;9.150;2023-07-24T11:06:54;8.82;;;4.55;;
71490;SDS011;59307;50.060;9.150;2023-07-24T11:09:22;8.27;;;4.13;;
71490;SDS011;59307;50.060;9.150;2023-07-24T11:11:47;7.87;;;4.70;;
71490;SDS011;59307;50.060;9.150;2023-07-24T11:14:13;8.17;;;4.67;;
71490;SDS011;59307;50.060;9.150;2023-07-24T11:16:47;8.67;;;4.50;;
71490;SDS011;59307;50.060;9.150;2023-07-24T11:19:12;8.38;;;4.38;;
71490;SDS011;59307;50.060;9.150;2023-07-24T11:21:37;11.97;;;4.67;;
71490;SDS011;59307;50.060;9.150;2023-07-24T11:24:06;10.07;;;4.50;;
71490;SDS011;59307;50.060;9.150;2023-07-24T11:26:31;8.57;;;4.75;;
71490;SDS011;59307;50.060;9.150;2023-07-24T11:28:56;8.67;;;4.40;;
71490;SDS011;59307;50.060;9.150;2023-07-24T11:31:21;12.57;;;4.47;;
71490;SDS011;59307;50.060;9.150;2023-07-24T11:33:47;9.90;;;4.43;;
71490;SDS011;59307;50.060;9.150;2023-07-24T11:36:13;10.48;;;4.30;;
71490;SDS011;59307;50.060;9.150;2023-07-24T11:38:39;9.83;;;4.00;;
71490;SDS011;59307;50.060;9.150;2023-07-24T11:41:04;11.30;;;3.97;;
71490;SDS011;59307;50.060;9.150;2023-07-24T11:43:29;9.02;;;4.60;;
71490;SDS011;59307;50.060;9.150;2023-07-24T11:45:54;9.37;;;4.40;;
71490;SDS011;59307;50.060;9.150;2023-07-24T11:48:21;7.97;;;4.20;;
71490;SDS011;59307;50.060;9.150;2023-07-24T11:50:54;7.40;;;4.32;;
71490;SDS011;59307;50.060;9.150;2023-07-24T11:55:51;13.83;;;4.60;;
71490;SDS011;59307;50.060;9.150;2023-07-24T11:58:17;7.80;;;4.30;;
71490;SDS011;59307;50.060;9.150;2023-07-24T12:00:42;9.67;;;4.97;;
71490;SDS011;59307;50.060;9.150;2023-07-24T12:03:07;7.47;;;4.50;;
71490;SDS011;59307;50.060;9.150;2023-07-24T12:05:39;7.85;;;4.60;;
71490;SDS011;59307;50.060;9.150;2023-07-24T12:08:05;10.85;;;5.00;;
71490;SDS011;59307;50.060;9.150;2023-07-24T12:10:31;10.27;;;5.03;;
71490;SDS011;59307;50.060;9.150;2023-07-24T12:12:58;7.97;;;4.33;;
71490;SDS011;59307;50.060;9.150;2023-07-24T12:15:23;9.50;;;4.97;;
71490;SDS011;59307;50.060;9.150;2023-07-24T12:17:48;8.17;;;4.33;;
71490;SDS011;59307;50.060;9.150;2023-07-24T12:20:14;10.17;;;5.07;;
71490;SDS011;59307;50.060;9.150;2023-07-24T12:22:39;9.13;;;4.47;;
71490;SDS011;59307;50.060;9.150;2023-07-24T12:25:05;9.87;;;4.50;;
71490;SDS011;59307;50.060;9.150;2023-07-24T12:27:30;13.45;;;4.40;;
71490;SDS011;59307;50.060;9.150;2023-07-24T12:29:56;9.23;;;4.30;;
71490;SDS011;59307;50.060;9.150;2023-07-24T12:32:21;8.47;;;4.73;;
71490;SDS011;59307;50.060;9.150;2023-07-24T12:34:48;8.98;;;4.22;;
71490;SDS011;59307;50.060;9.150;2023-07-24T12:37:13;10.60;;;4.60;;
71490;SDS011;59307;50.060;9.150;2023-07-24T12:39:38;9.57;;;4.40;;
71490;SDS011;59307;50.060;9.150;2023-07-24T12:42:04;9.10;;;4.30;;
71490;SDS011;59307;50.060;9.150;2023-07-24T12:44:29;10.17;;;4.20;;
71490;SDS011;59307;50.060;9.150;2023-07-24T12:46:54;9.35;;;4.55;;
71490;SDS011;59307;50.060;9.150;2023-07-24T12:49:20;8.00;;;4.20;;
71490;SDS011;59307;50.060;9.150;2023-07-24T12:51:45;9.90;;;4.85;;
71490;SDS011;59307;50.060;9.150;2023-07-24T12:54:10;8.50;;;4.45;;
71490;SDS011;59307;50.060;9.150;2023-07-24T12:56:35;9.03;;;4.67;;
71490;SDS011;59307;50.060;9.150;2023-07-24T12:59:01;10.33;;;4.67;;
71490;SDS011;59307;50.060;9.150;2023-07-24T13:01:26;9.00;;;4.43;;
71490;SDS011;59307;50.060;9.150;2023-07-24T13:03:53;8.90;;;4.32;;
71490;SDS011;59307;50.060;9.150;2023-07-24T13:06:18;9.03;;;4.90;;
71490;SDS011;59307;50.060;9.150;2023-07-24T13:08:43;9.57;;;4.37;;
71490;SDS011;59307;50.060;9.150;2023-07-24T13:11:09;8.47;;;4.67;;
71490;SDS011;59307;50.060;9.150;2023-07-24T13:13:34;10.33;;;4.53;;
71490;SDS011;59307;50.060;9.150;2023-07-24T13:16:01;11.10;;;4.53;;
71490;SDS011;59307;50.060;9.150;2023-07-24T13:18:26;8.27;;;4.57;;
71490;SDS011;59307;50.060;9.150;2023-07-24T13:20:51;9.07;;;3.97;;
71490;SDS011;59307;50.060;9.150;2023-07-24T13:23:17;9.93;;;4.30;;
71490;SDS011;59307;50.060;9.150;2023-07-24T13:25:42;7.60;;;4.30;;
71490;SDS011;59307;50.060;9.150;2023-07-24T13:28:07;8.63;;;4.33;;
71490;SDS011;59307;50.060;9.150;2023-07-24T13:30:32;12.80;;;4.27;;
71490;SDS011;59307;50.060;9.150;2023-07-24T13:32:57;7.47;;;4.20;;
71490;SDS011;59307;50.060;9.150;2023-07-24T13:35:23;8.50;;;4.50;;
71490;SDS011;59307;50.060;9.150;2023-07-24T13:37:48;9.27;;;4.63;;
71490;SDS011;59307;50.060;9.150;2023-07-24T13:40:13;9.70;;;4.07;;
71490;SDS011;59307;50.060;9.150;2023-07-24T13:42:38;7.23;;;3.97;;
71490;SDS011;59307;50.060;9.150;2023-07-24T13:45:03;7.57;;;4.27;;
71490;SDS011;59307;50.060;9.150;2023-07-24T13:47:29;11.20;;;4.50;;
71490;SDS011;59307;50.060;9.150;2023-07-24T13:49:54;8.67;;;4.03;;
71490;SDS011;59307;50.060;9.150;2023-07-24T13:52:19;7.50;;;4.50;;
71490;SDS011;59307;50.060;9.150;2023-07-24T13:54:44;10.00;;;4.30;;
71490;SDS011;59307;50.060;9.150;2023-07-24T13:57:09;7.40;;;4.40;;
71490;SDS011;59307;50.060;9.150;2023-07-24T13:59:35;11.53;;;4.83;;
71490;SDS011;59307;50.060;9.150;2023-07-24T14:02:00;9.53;;;4.53;;
71490;SDS011;59307;50.060;9.150;2023-07-24T14:04:25;9.67;;;4.60;;
71490;SDS011;59307;50.060;9.150;2023-07-24T14:06:51;10.30;;;4.07;;
71490;SDS011;59307;50.060;9.150;2023-07-24T14:09:16;9.43;;;5.13;;
71490;SDS011;59307;50.060;9.150;2023-07-24T14:11:41;9.40;;;4.70;;
71490;SDS011;59307;50.060;9.150;2023-07-24T14:14:06;11.93;;;4.60;;
71490;SDS011;59307;50.060;9.150;2023-07-24T14:16:31;8.73;;;4.57;;
71490;SDS011;59307;50.060;9.150;2023-07-24T14:18:57;10.73;;;4.53;;
71490;SDS011;59307;50.060;9.150;2023-07-24T14:21:22;8.90;;;4.53;;
71490;SDS011;59307;50.060;9.150;2023-07-24T14:23:47;8.03;;;4.40;;
71490;SDS011;59307;50.060;9.150;2023-07-24T14:26:12;10.83;;;5.20;;
71490;SDS011;59307;50.060;9.150;2023-07-24T14:28:37;9.23;;;4.73;;
71490;SDS011;59307;50.060;9.150;2023-07-24T14:31:03;10.43;;;4.70;;
71490;SDS011;59307;50.060;9.150;2023-07-24T14:33:29;9.43;;;5.10;;
71490;SDS011;59307;50.060;9.150;2023-07-24T14:35:55;14.07;;;6.03;;
71490;SDS011;59307;50.060;9.150;2023-07-24T14:38:20;8.93;;;5.03;;
71490;SDS011;59307;50.060;9.150;2023-07-24T14:40:45;8.63;;;4.90;;
71490;SDS011;59307;50.060;9.150;2023-07-24T14:43:10;9.93;;;4.97;;
71490;SDS011;59307;50.060;9.150;2023-07-24T14:45:35;7.80;;;4.90;;